Weather at Ontario International Airport

Public forecast

Using degrees Fahrenheit for public forecast. Weather courtesy of forecast.io.

Current aviation weather report (METAR) for Ontario International Airport

Retrieved 2021/10/21 02:53 UTC (53 minutes ago):

KONT 210253Z 25007KT 10SM FEW200 BKN250 19/04 A3009 RMK AO2 SLP181 T01940044 53016

Aviation forecast (TAF) for Ontario International Airport

Retrieved 2021-10-21 00:22 UTC (3 hours ago):

TAF KONT 202320Z 2100/2206 25007KT P6SM SCT200 FM210300 VRB04KT P6SM SCT200 FM212100 25007KT P6SM SCT200 FM220300 VRB04KT P6SM SCT200